Time;durP1;ratioP1;P1;durP2;ratioP2;P2;SDS_P1;SDS_P2;PMS_P1;PMS_P2;Temp;Humidity;BMP_temperature;BMP_pressure;BME280_temperature;BME280_humidity;BME280_pressure;Samples;Min_cycle;Max_cycle;Signal;HPM_P1;HPM_P2
2023/11/14 00:01:17;;;;;;;0.10;0.00;;;;;;;26.40;48.41;98061.13;7388843;19;20021;-81
2023/11/14 00:03:43;;;;;;;9.65;1.00;;;;;;;25.66;49.17;98054.00;7391566;19;20061;-81
2023/11/14 00:06:09;;;;;;;4.00;1.17;;;;;;;25.46;49.87;98064.94;7388926;19;20692;-82
2023/11/14 00:08:36;;;;;;;0.20;0.20;;;;;;;25.26;51.31;98061.59;7389592;19;20042;-81
2023/11/14 00:11:05;;;;;;;0.22;0.22;;;;;;;25.24;50.70;98063.56;7388486;19;20478;-82
2023/11/14 00:13:33;;;;;;;0.10;0.10;;;;;;;24.85;51.55;98069.00;7388319;19;20015;-81
2023/11/14 00:15:59;;;;;;;0.00;0.00;;;;;;;24.88;51.96;98072.72;7392037;19;20693;-81
2023/11/14 00:18:25;;;;;;;3.83;0.85;;;;;;;20.24;69.72;98082.00;7390130;19;20010;-81
2023/11/14 00:20:54;;;;;;;0.75;0.45;;;;;;;15.03;100.00;98094.34;7389767;19;20472;-81
2023/11/14 00:23:20;;;;;;;0.10;0.10;;;;;;;23.37;77.73;98077.75;7388045;19;20011;-81
2023/11/14 00:25:47;;;;;;;1.00;0.43;;;;;;;25.15;64.77;98085.13;7390462;19;20018;-81
2023/11/14 00:28:14;;;;;;;0.30;0.30;;;;;;;18.61;88.52;98092.91;7391076;19;20500;-81
2023/11/14 00:30:40;;;;;;;0.15;0.10;;;;;;;15.11;100.00;98102.84;7389889;19;20504;-81
2023/11/14 00:33:06;;;;;;;0.10;0.10;;;;;;;19.81;100.00;98101.72;7391163;19;20014;-81
2023/11/14 00:35:33;;;;;;;14.25;0.73;;;;;;;18.65;100.00;98098.91;7387128;19;20010;-81
2023/11/14 00:37:59;;;;;;;25.45;1.13;;;;;;;21.91;83.78;98099.19;7387943;19;20377;-81
2023/11/14 00:40:25;;;;;;;0.10;0.00;;;;;;;23.37;75.74;98094.81;7388014;19;20019;-81
2023/11/14 00:42:51;;;;;;;4.10;1.38;;;;;;;23.85;71.31;98103.78;7390826;19;20342;-81
2023/11/14 00:45:19;;;;;;;0.10;0.10;;;;;;;24.33;68.24;98099.81;7391550;19;20010;-80
2023/11/14 00:47:45;;;;;;;0.40;0.40;;;;;;;23.85;68.75;98108.72;7388271;19;20010;-81
2023/11/14 00:50:12;;;;;;;4.82;0.30;;;;;;;24.64;65.85;98112.53;7387626;19;20007;-81
2023/11/14 00:52:38;;;;;;;0.20;0.20;;;;;;;24.45;64.97;98107.03;7389476;19;20099;-81
2023/11/14 00:55:05;;;;;;;16.98;1.55;;;;;;;23.46;68.62;98102.53;7388099;19;20026;-81
2023/11/14 00:57:31;;;;;;;1.20;0.45;;;;;;;23.38;69.67;98106.91;7389063;19;20015;-81
2023/11/14 00:59:58;;;;;;;6.43;0.57;;;;;;;22.21;73.31;98112.75;7388954;19;20535;-80
2023/11/14 01:02:24;;;;;;;1.27;0.20;;;;;;;22.31;75.21;98114.22;7388922;19;20014;-80
2023/11/14 01:04:50;;;;;;;0.30;0.30;;;;;;;23.20;71.20;98120.59;7389051;19;20014;-81
2023/11/14 01:07:17;;;;;;;0.13;0.13;;;;;;;23.57;70.10;98118.16;7388263;19;20461;-81
2023/11/14 01:09:43;;;;;;;0.10;0.00;;;;;;;23.57;69.74;98127.44;7387540;19;20387;-81
2023/11/14 01:12:09;;;;;;;0.45;0.45;;;;;;;24.50;65.65;98125.84;7389760;19;20574;-81
2023/11/14 01:14:35;;;;;;;0.10;0.00;;;;;;;24.96;64.04;98128.09;7386260;19;20007;-81
2023/11/14 01:17:02;;;;;;;12.73;0.95;;;;;;;25.81;61.76;98124.75;7389618;19;20007;-81
2023/11/14 01:19:28;;;;;;;1.38;1.27;;;;;;;25.41;61.45;98142.97;7387063;19;20461;-81
2023/11/14 01:21:54;;;;;;;0.00;0.00;;;;;;;25.37;60.94;98134.19;7393566;19;20014;-81
2023/11/14 01:24:20;;;;;;;2.38;1.17;;;;;;;25.49;60.22;98147.09;7394225;19;20009;-80
2023/11/14 01:26:47;;;;;;;4.35;0.88;;;;;;;25.52;59.82;98145.13;7395421;19;20036;-81
2023/11/14 01:29:13;;;;;;;0.85;0.17;;;;;;;25.56;59.21;98146.09;7394769;19;20014;-81
2023/11/14 01:31:39;;;;;;;4.43;1.20;;;;;;;24.96;61.36;98148.03;7393344;19;20003;-81
2023/11/14 01:34:05;;;;;;;0.10;0.10;;;;;;;26.17;56.41;98146.88;7394194;19;20031;-81
2023/11/14 01:36:31;;;;;;;0.10;0.00;;;;;;;31.14;47.37;98131.09;7393995;19;20010;-81
2023/11/14 01:38:57;;;;;;;0.10;0.00;;;;;;;32.40;42.96;98142.88;7392618;19;20007;-80
2023/11/14 01:41:24;;;;;;;1.75;0.50;;;;;;;30.07;46.51;98153.94;7392931;19;20391;-80
2023/11/14 01:43:50;;;;;;;0.17;0.17;;;;;;;32.67;41.14;98148.13;7393726;19;20086;-81
2023/11/14 01:46:18;;;;;;;0.35;0.35;;;;;;;31.57;41.69;98149.97;7394283;19;20357;-81
2023/11/14 01:48:49;;;;;;;0.10;0.10;;;;;;;28.81;45.39;98155.31;7392179;19;20030;-80
2023/11/14 01:51:17;;;;;;;0.40;0.40;;;;;;;31.55;41.38;98144.91;7393577;19;20014;-81
2023/11/14 01:53:43;;;;;;;0.10;0.10;;;;;;;27.47;47.29;98149.91;7391275;19;20002;-81
2023/11/14 01:56:11;;;;;;;0.10;0.00;;;;;;;28.29;48.35;98142.75;7392606;19;20015;-81
2023/11/14 01:58:37;;;;;;;0.13;0.10;;;;;;;24.87;52.39;98146.03;7391786;19;20018;-81
2023/11/14 02:01:04;;;;;;;0.10;0.10;;;;;;;25.28;52.97;98150.03;7390974;19;20019;-80
2023/11/14 02:03:32;;;;;;;9.30;0.68;;;;;;;24.46;56.03;98150.47;7391281;19;20476;-81
2023/11/14 02:05:58;;;;;;;0.10;0.00;;;;;;;24.42;56.65;98153.03;7393502;19;20010;-81
2023/11/14 02:08:25;;;;;;;8.30;0.38;;;;;;;24.04;57.74;98142.69;7392894;19;20632;-81
2023/11/14 02:10:51;;;;;;;0.52;0.52;;;;;;;23.80;59.00;98135.41;7393280;19;20043;-81
2023/11/14 02:13:17;;;;;;;0.47;0.47;;;;;;;23.89;59.19;98138.16;7392719;19;20360;-79
2023/11/14 02:15:44;;;;;;;4.45;0.32;;;;;;;24.90;56.57;98133.41;7393148;19;20018;-81
2023/11/14 02:18:10;;;;;;;4.13;0.32;;;;;;;28.44;50.22;98133.47;7394420;19;20042;-82
2023/11/14 02:20:36;;;;;;;0.22;0.22;;;;;;;30.25;46.32;98128.88;7391996;19;20017;-81
2023/11/14 02:23:09;;;;;;;0.08;0.08;;;;;;;30.81;43.51;98127.59;7401688;19;20007;-82
2023/11/14 02:25:36;;;;;;;1.20;0.70;;;;;;;32.10;41.05;98121.66;7392575;19;20006;-81
2023/11/14 02:28:02;;;;;;;1.23;0.77;;;;;;;29.69;41.98;98118.56;7394328;19;20011;-82
2023/11/14 02:30:28;;;;;;;0.30;0.30;;;;;;;32.55;39.62;98121.78;7392767;19;20039;-82
2023/11/14 02:32:56;;;;;;;0.10;0.10;;;;;;;32.82;38.21;98124.09;7392098;19;20086;-81
2023/11/14 02:35:22;;;;;;;0.10;0.00;;;;;;;33.03;37.92;98124.75;7392139;19;20010;-82
2023/11/14 02:37:48;;;;;;;0.10;0.10;;;;;;;32.97;37.09;98127.41;7392391;19;20027;-81
2023/11/14 02:40:14;;;;;;;0.10;0.05;;;;;;;33.42;36.32;98136.75;7393148;19;20508;-81
2023/11/14 02:42:43;;;;;;;0.20;0.20;;;;;;;33.07;36.02;98136.41;7391840;19;20009;-81
2023/11/14 02:45:09;;;;;;;1.20;0.32;;;;;;;33.39;35.21;98125.84;7393713;19;20427;-81
2023/11/14 02:47:36;;;;;;;0.50;0.50;;;;;;;33.34;35.24;98141.56;7391556;19;20018;-82
2023/11/14 02:50:09;;;;;;;0.10;0.10;;;;;;;30.37;37.33;98143.78;7391473;19;20106;-82
2023/11/14 02:52:37;;;;;;;0.10;0.00;;;;;;;26.72;41.55;98145.78;7393226;19;20010;-81
2023/11/14 02:55:05;;;;;;;0.10;0.10;;;;;;;25.51;44.78;98155.78;7391067;19;20010;-81
2023/11/14 02:57:32;;;;;;;0.30;0.20;;;;;;;26.89;43.85;98153.91;7390505;19;20002;-81
2023/11/14 02:59:59;;;;;;;0.10;0.10;;;;;;;30.79;38.96;98151.25;7391639;19;20017;-81
2023/11/14 03:02:25;;;;;;;2.28;0.90;;;;;;;31.36;37.67;98140.56;7392267;19;20015;-81
2023/11/14 03:04:52;;;;;;;1.40;0.85;;;;;;;26.72;42.35;98151.50;7394054;19;20465;-81
2023/11/14 03:07:18;;;;;;;1.10;0.63;;;;;;;26.73;43.04;98155.84;7389142;19;20018;-81
2023/11/14 03:09:45;;;;;;;0.22;0.22;;;;;;;25.16;45.45;98146.47;7390347;19;20030;-81
2023/11/14 03:12:11;;;;;;;0.10;0.10;;;;;;;24.13;47.74;98155.41;7391731;19;20018;-82
2023/11/14 03:14:38;;;;;;;0.10;0.00;;;;;;;24.03;49.62;98147.66;7390987;19;20027;-82
2023/11/14 03:17:04;;;;;;;0.93;0.90;;;;;;;24.60;48.50;98140.72;7390961;19;20006;-82
2023/11/14 03:19:30;;;;;;;0.57;0.57;;;;;;;26.67;45.23;98140.47;7390184;19;20008;-82
2023/11/14 03:21:56;;;;;;;0.68;0.25;;;;;;;24.65;48.05;98147.41;7391082;19;20002;-82
2023/11/14 03:24:22;;;;;;;0.15;0.15;;;;;;;24.20;49.98;98154.44;7392509;19;20019;-82
2023/11/14 03:26:49;;;;;;;0.10;0.10;;;;;;;23.60;50.90;98151.81;7390388;19;19998;-81
2023/11/14 03:29:15;;;;;;;3.50;0.52;;;;;;;24.20;50.06;98154.44;7390579;19;20027;-81
2023/11/14 03:31:41;;;;;;;0.40;0.40;;;;;;;23.22;52.16;98157.66;7389652;19;20106;-80
2023/11/14 03:34:08;;;;;;;3.67;0.73;;;;;;;22.84;54.27;98149.25;7391250;19;20017;-81
2023/11/14 03:36:34;;;;;;;0.10;0.10;;;;;;;23.01;54.83;98144.13;7389985;19;20010;-81
2023/11/14 03:39:00;;;;;;;6.28;0.43;;;;;;;23.27;53.40;98137.44;7390773;19;20069;-82
2023/11/14 03:41:26;;;;;;;0.65;0.50;;;;;;;22.15;57.41;98138.59;7388391;19;20002;-82
2023/11/14 03:43:52;;;;;;;0.65;0.43;;;;;;;22.04;58.76;98136.34;7391249;19;20011;-81
2023/11/14 03:46:19;;;;;;;0.10;0.00;;;;;;;22.58;58.85;98120.47;7391380;19;20007;-81
2023/11/14 03:48:45;;;;;;;12.35;0.73;;;;;;;22.18;60.21;98128.88;7388793;19;20006;-81
2023/11/14 03:51:11;;;;;;;0.52;0.45;;;;;;;22.36;60.57;98135.88;7384874;19;20006;-81
2023/11/14 03:53:38;;;;;;;0.40;0.20;;;;;;;22.09;61.65;98126.03;7384553;19;20028;-82
2023/11/14 03:56:04;;;;;;;0.10;0.00;;;;;;;22.19;62.55;98130.38;7386945;19;20033;-82
2023/11/14 03:58:31;;;;;;;0.10;0.10;;;;;;;22.12;62.80;98130.50;7384466;19;20135;-81
2023/11/14 04:00:58;;;;;;;0.17;0.15;;;;;;;23.23;59.89;98130.75;7384617;19;20504;-81
2023/11/14 04:03:24;;;;;;;0.20;0.17;;;;;;;29.63;47.02;98136.25;7384803;19;20381;-81
2023/11/14 04:05:50;;;;;;;0.10;0.08;;;;;;;31.69;41.37;98141.78;7390809;19;20010;-81
2023/11/14 04:08:16;;;;;;;1.55;0.98;;;;;;;31.88;39.88;98132.41;7389993;19;20479;-81
2023/11/14 04:10:42;;;;;;;0.10;0.10;;;;;;;31.99;39.18;98122.72;7388086;19;20013;-82
2023/11/14 04:13:08;;;;;;;0.20;0.20;;;;;;;31.31;39.96;98138.22;7388042;19;20010;-82
2023/11/14 04:15:35;;;;;;;0.10;0.10;;;;;;;32.24;38.20;98130.81;7390903;19;20018;-82
2023/11/14 04:18:01;;;;;;;0.75;0.30;;;;;;;30.05;40.36;98142.38;7389560;19;20069;-82
2023/11/14 04:20:27;;;;;;;0.10;0.00;;;;;;;31.95;38.37;98142.75;7389452;19;20010;-82
2023/11/14 04:22:53;;;;;;;0.10;0.10;;;;;;;29.93;40.40;98143.34;7390588;19;20011;-81
2023/11/14 04:25:19;;;;;;;0.10;0.10;;;;;;;31.88;38.22;98146.81;7388508;19;20014;-82
2023/11/14 04:27:45;;;;;;;0.75;0.75;;;;;;;32.67;36.89;98153.91;7390779;19;20015;-81
2023/11/14 04:30:11;;;;;;;0.95;0.47;;;;;;;32.97;36.34;98159.88;7388273;19;20003;-81
2023/11/14 04:32:38;;;;;;;0.10;0.00;;;;;;;34.02;34.35;98165.94;7387773;19;20396;-81
2023/11/14 04:35:04;;;;;;;0.63;0.63;;;;;;;31.80;36.78;98158.03;7388210;19;20496;-81
2023/11/14 04:37:30;;;;;;;0.10;0.00;;;;;;;27.27;41.62;98163.09;7386603;19;20007;-81
2023/11/14 04:39:58;;;;;;;0.63;0.28;;;;;;;27.33;41.15;98160.56;7390091;19;20048;-81
2023/11/14 04:42:24;;;;;;;0.20;0.10;;;;;;;23.94;46.62;98162.69;7387213;19;20014;-81
2023/11/14 04:44:51;;;;;;;0.20;0.20;;;;;;;22.89;50.29;98157.44;7389666;19;20013;-81
2023/11/14 04:47:19;;;;;;;0.10;0.00;;;;;;;23.12;50.95;98156.94;7387138;19;20003;-81
2023/11/14 04:49:45;;;;;;;0.40;0.40;;;;;;;24.05;51.53;98159.19;7387837;19;20070;-81
2023/11/14 04:52:11;;;;;;;0.10;0.10;;;;;;;24.36;50.53;98147.72;7389865;19;20353;-82
2023/11/14 04:54:37;;;;;;;0.20;0.20;;;;;;;23.79;50.03;98146.03;7388017;19;20044;-81
2023/11/14 04:57:03;;;;;;;1.17;0.63;;;;;;;23.57;51.82;98147.34;7393021;19;20002;-81
2023/11/14 04:59:29;;;;;;;0.10;0.10;;;;;;;23.77;50.79;98137.34;7394342;19;20123;-81
2023/11/14 05:01:56;;;;;;;0.35;0.32;;;;;;;22.81;52.75;98148.38;7396781;19;20014;-82
2023/11/14 05:04:22;;;;;;;0.10;0.00;;;;;;;21.54;57.63;98150.25;7395619;19;20034;-81
2023/11/14 05:06:48;;;;;;;0.13;0.13;;;;;;;20.62;69.62;98154.28;7396915;19;20011;-82
2023/11/14 05:09:15;;;;;;;6.13;1.45;;;;;;;21.30;67.46;98161.78;7394918;19;20010;-81
2023/11/14 05:11:41;;;;;;;0.20;0.10;;;;;;;18.70;89.91;98165.63;7393712;19;20067;-81
2023/11/14 05:14:07;;;;;;;0.52;0.43;;;;;;;20.68;79.11;98166.81;7395506;19;20022;-82
2023/11/14 05:16:43;;;;;;;0.10;0.00;;;;;;;21.90;72.69;98163.63;7394088;19;20010;-81
2023/11/14 05:19:10;;;;;;;0.80;0.73;;;;;;;21.41;74.55;98162.00;7395958;19;20014;-82
2023/11/14 05:21:39;;;;;;;0.25;0.22;;;;;;;20.99;77.14;98161.47;7395159;19;20021;-82
2023/11/14 05:24:09;;;;;;;1.33;0.93;;;;;;;20.54;80.58;98162.84;7395630;19;20017;-82
2023/11/14 05:26:35;;;;;;;0.10;0.00;;;;;;;21.86;74.59;98160.47;7393568;19;20014;-81
2023/11/14 05:29:01;;;;;;;0.15;0.15;;;;;;;20.39;83.18;98163.81;7394286;19;20011;-82
2023/11/14 05:31:27;;;;;;;1.55;0.20;;;;;;;20.71;83.16;98174.13;7393930;19;20002;-81
2023/11/14 05:33:53;;;;;;;2.22;0.80;;;;;;;20.61;85.95;98179.00;7396720;19;20025;-81
2023/11/14 05:36:19;;;;;;;6.22;0.77;;;;;;;24.94;65.80;98173.53;7394467;19;20476;-81
2023/11/14 05:38:45;;;;;;;4.85;1.33;;;;;;;29.31;52.52;98166.34;7395530;19;20100;-81
2023/11/14 05:41:13;;;;;;;1.75;0.95;;;;;;;32.10;44.41;98167.75;7392840;19;20006;-81
2023/11/14 05:43:40;;;;;;;0.47;0.47;;;;;;;33.16;40.74;98172.78;7394538;19;20018;-81
2023/11/14 05:46:06;;;;;;;1.23;0.45;;;;;;;32.42;40.16;98174.63;7395672;19;20035;-82
2023/11/14 05:48:32;;;;;;;2.38;0.75;;;;;;;26.79;48.75;98179.03;7391577;19;20007;-81
2023/11/14 05:50:58;;;;;;;0.10;0.10;;;;;;;24.15;57.53;98179.00;7394352;19;20018;-81
2023/11/14 05:53:24;;;;;;;0.10;0.10;;;;;;;29.72;46.17;98166.78;7392067;19;20010;-81
2023/11/14 05:55:50;;;;;;;1.85;0.55;;;;;;;30.96;41.48;98161.28;7395822;19;20009;-81
2023/11/14 05:58:17;;;;;;;0.10;0.00;;;;;;;31.31;40.98;98153.34;7393053;19;20073;-82
2023/11/14 06:00:43;;;;;;;0.10;0.00;;;;;;;30.73;41.37;98146.00;7390961;19;20015;-81
2023/11/14 06:03:09;;;;;;;0.35;0.35;;;;;;;31.57;40.29;98138.47;7393662;19;20010;-82
2023/11/14 06:05:35;;;;;;;0.10;0.00;;;;;;;32.59;37.84;98144.25;7393346;19;20007;-81
2023/11/14 06:08:01;;;;;;;0.38;0.32;;;;;;;37.31;33.18;98130.81;7391754;19;19994;-82
2023/11/14 06:10:27;;;;;;;12.60;1.20;;;;;;;38.86;30.39;98128.84;7392036;19;20010;-82
2023/11/14 06:12:53;;;;;;;0.30;0.10;;;;;;;35.50;32.48;98128.34;7394555;19;20042;-82
2023/11/14 06:15:21;;;;;;;0.22;0.22;;;;;;;37.22;31.38;98129.97;7393706;19;20034;-81
2023/11/14 06:17:47;;;;;;;0.10;0.00;;;;;;;35.63;31.46;98130.06;7392603;19;20025;-81
2023/11/14 06:20:14;;;;;;;0.10;0.00;;;;;;;38.28;29.51;98121.09;7393605;19;20007;-82
2023/11/14 06:22:41;;;;;;;0.10;0.00;;;;;;;33.47;33.16;98126.06;7392559;19;20007;-82
2023/11/14 06:25:07;;;;;;;0.95;0.55;;;;;;;30.12;36.81;98129.75;7395084;19;20013;-82
2023/11/14 06:27:34;;;;;;;0.28;0.28;;;;;;;32.90;33.88;98123.59;7391525;19;20002;-81
2023/11/14 06:30:00;;;;;;;0.17;0.17;;;;;;;32.95;33.61;98113.66;7391394;19;20021;-81
2023/11/14 06:32:27;;;;;;;0.10;0.00;;;;;;;31.99;34.56;98102.56;7393470;19;20052;-81
2023/11/14 06:34:53;;;;;;;3.88;0.28;;;;;;;32.15;34.63;98111.75;7394430;19;20496;-81
2023/11/14 06:37:19;;;;;;;0.10;0.00;;;;;;;34.31;33.37;98087.97;7391066;19;20021;-81
2023/11/14 06:39:46;;;;;;;2.83;1.02;;;;;;;33.43;33.58;98094.19;7393586;19;20085;-82
2023/11/14 06:42:12;;;;;;;1.17;1.15;;;;;;;36.65;30.45;98087.00;7393633;19;20017;-82
2023/11/14 06:44:42;;;;;;;0.40;0.28;;;;;;;32.24;34.22;98099.13;7393955;19;20015;-81
2023/11/14 06:47:08;;;;;;;5.28;1.83;;;;;;;31.52;35.07;98108.06;7390251;19;20018;-82
2023/11/14 06:49:34;;;;;;;1.08;1.02;;;;;;;31.34;35.10;98108.84;7391688;19;20010;-81
2023/11/14 06:52:00;;;;;;;2.08;0.85;;;;;;;30.46;35.95;98105.34;7391734;19;20048;-81
2023/11/14 06:54:26;;;;;;;1.20;1.08;;;;;;;31.00;36.01;98113.31;7391758;19;20031;-81
2023/11/14 06:56:53;;;;;;;7.15;1.75;;;;;;;31.01;35.62;98117.66;7391924;19;20014;-81
2023/11/14 06:59:20;;;;;;;3.00;2.50;;;;;;;30.93;35.68;98123.09;7390794;19;20018;-80
2023/11/14 07:01:52;;;;;;;4.95;1.55;;;;;;;30.83;35.85;98131.28;7392148;19;20394;-81
2023/11/14 07:04:19;;;;;;;1.55;1.10;;;;;;;30.76;36.21;98123.81;7391645;19;20018;-80
2023/11/14 07:06:45;;;;;;;0.55;0.55;;;;;;;30.67;36.16;98122.75;7392729;19;20436;-82
2023/11/14 07:09:11;;;;;;;0.30;0.30;;;;;;;28.96;38.50;98131.69;7391473;19;20002;-81
2023/11/14 07:11:37;;;;;;;4.10;1.17;;;;;;;30.33;36.63;98137.84;7391115;19;20049;-81
2023/11/14 07:14:04;;;;;;;0.10;0.00;;;;;;;33.46;34.78;98124.59;7392485;19;20015;-81
2023/11/14 07:16:30;;;;;;;0.40;0.22;;;;;;;29.82;36.12;98138.53;7392250;19;20010;-82
2023/11/14 07:18:56;;;;;;;0.20;0.20;;;;;;;30.34;35.93;98133.59;7390425;19;20014;-81
2023/11/14 07:21:23;;;;;;;2.28;1.40;;;;;;;30.63;35.41;98130.47;7390375;19;20010;-80
2023/11/14 07:23:50;;;;;;;0.40;0.40;;;;;;;28.43;37.29;98129.16;7391309;19;20027;-81
2023/11/14 07:26:16;;;;;;;0.35;0.30;;;;;;;27.62;38.71;98143.56;7392857;19;20006;-81
2023/11/14 07:28:42;;;;;;;0.22;0.22;;;;;;;29.17;37.49;98146.34;7396392;19;20038;-81
2023/11/14 07:31:08;;;;;;;0.80;0.52;;;;;;;30.65;35.46;98147.81;7395669;19;20522;-81
2023/11/14 07:33:34;;;;;;;0.13;0.13;;;;;;;28.85;37.78;98146.91;7393038;19;20423;-81
2023/11/14 07:36:01;;;;;;;0.20;0.10;;;;;;;30.79;36.24;98136.13;7392548;19;20018;-81
2023/11/14 07:38:27;;;;;;;0.10;0.10;;;;;;;30.77;36.32;98133.94;7389173;19;20003;-81
2023/11/14 07:40:53;;;;;;;1.45;0.73;;;;;;;31.38;35.56;98116.91;7390713;19;20085;-82
2023/11/14 07:43:24;;;;;;;0.73;0.55;;;;;;;31.46;35.48;98130.88;7392107;19;20014;-82
2023/11/14 07:45:50;;;;;;;0.70;0.70;;;;;;;31.48;35.37;98139.56;7394770;19;20069;-82
2023/11/14 07:48:17;;;;;;;0.70;0.70;;;;;;;30.83;36.85;98139.91;7390742;19;20251;-82
2023/11/14 07:50:43;;;;;;;0.10;0.10;;;;;;;33.06;34.25;98143.59;7387655;19;20061;-82
2023/11/14 07:53:09;;;;;;;0.28;0.22;;;;;;;34.70;32.78;98138.06;7390708;19;20013;-83
2023/11/14 07:55:37;;;;;;;2.83;1.00;;;;;;;41.13;26.97;98132.41;7391242;19;20038;-82
2023/11/14 07:58:03;;;;;;;0.10;0.00;;;;;;;41.39;26.31;98141.13;7391225;19;20131;-81
2023/11/14 08:00:31;;;;;;;0.20;0.20;;;;;;;40.89;26.09;98163.88;7389648;19;20040;-81
2023/11/14 08:02:57;;;;;;;0.10;0.00;;;;;;;39.49;27.25;98171.50;7391624;19;20044;-80
2023/11/14 08:05:23;;;;;;;2.75;0.15;;;;;;;37.69;28.75;98168.34;7390691;19;20018;-81
2023/11/14 08:07:49;;;;;;;0.10;0.10;;;;;;;39.04;27.79;98173.38;7391033;19;20022;-81
2023/11/14 08:10:16;;;;;;;0.85;0.43;;;;;;;35.74;29.95;98181.00;7388963;19;20010;-81
2023/11/14 08:12:42;;;;;;;2.05;1.40;;;;;;;32.65;32.48;98179.78;7387632;19;20006;-81
2023/11/14 08:15:09;;;;;;;0.57;0.30;;;;;;;35.43;30.45;98187.53;7390735;19;20371;-81
2023/11/14 08:17:35;;;;;;;0.10;0.00;;;;;;;38.93;28.25;98177.66;7388345;19;20402;-81
2023/11/14 08:20:01;;;;;;;0.10;0.10;;;;;;;36.72;30.04;98190.13;7388664;19;20012;-81
2023/11/14 08:22:27;;;;;;;0.30;0.30;;;;;;;32.59;32.38;98175.97;7388421;19;20006;-81
2023/11/14 08:24:53;;;;;;;0.68;0.17;;;;;;;29.77;35.72;98179.22;7390701;19;20049;-81
2023/11/14 08:27:20;;;;;;;0.30;0.30;;;;;;;26.18;41.18;98171.22;7389607;19;20018;-81
2023/11/14 08:29:47;;;;;;;0.43;0.43;;;;;;;28.75;39.08;98163.63;7388294;19;20010;-81
2023/11/14 08:32:16;;;;;;;0.10;0.10;;;;;;;28.76;39.41;98168.00;7391036;19;20006;-81
2023/11/14 08:34:43;;;;;;;0.10;0.00;;;;;;;29.04;39.40;98166.47;7388227;19;20041;-81
2023/11/14 08:37:09;;;;;;;1.65;0.77;;;;;;;28.76;40.14;98165.13;7388065;19;20330;-81
2023/11/14 08:39:35;;;;;;;0.10;0.10;;;;;;;28.43;40.84;98152.06;7389425;19;20022;-81
2023/11/14 08:42:01;;;;;;;0.80;0.65;;;;;;;28.06;41.46;98159.47;7390245;19;20010;-81
2023/11/14 08:44:27;;;;;;;0.30;0.30;;;;;;;28.32;41.64;98170.13;7389427;19;20082;-80
2023/11/14 08:46:53;;;;;;;0.10;0.00;;;;;;;26.63;43.23;98166.69;7389511;19;20066;-81
2023/11/14 08:49:20;;;;;;;0.10;0.00;;;;;;;28.26;42.31;98158.34;7387988;19;20014;-80
2023/11/14 08:51:46;;;;;;;0.10;0.10;;;;;;;28.36;42.25;98138.06;7387213;19;20010;-81
2023/11/14 08:54:12;;;;;;;0.10;0.10;;;;;;;28.50;42.38;98133.78;7387983;19;20021;-81
2023/11/14 08:56:40;;;;;;;0.10;0.10;;;;;;;28.97;41.49;98133.19;7386529;19;20005;-80
2023/11/14 08:59:07;;;;;;;0.17;0.17;;;;;;;29.14;41.29;98126.81;7389767;19;20010;-80
2023/11/14 09:01:34;;;;;;;9.65;1.45;;;;;;;29.26;41.28;98118.78;7388256;19;20457;-81
2023/11/14 09:04:00;;;;;;;0.00;0.00;;;;;;;29.97;40.35;98119.81;7389488;19;20009;-81
2023/11/14 09:06:26;;;;;;;0.10;0.00;;;;;;;30.44;39.80;98131.13;7387685;19;20010;-81
2023/11/14 09:08:52;;;;;;;0.03;0.00;;;;;;;29.82;39.95;98115.59;7390341;19;20007;-81
2023/11/14 09:11:20;;;;;;;0.10;0.10;;;;;;;30.08;40.08;98126.72;7386502;19;20410;-80
2023/11/14 09:13:47;;;;;;;1.45;1.00;;;;;;;30.70;39.39;98117.84;7387758;19;20010;-81
2023/11/14 09:16:13;;;;;;;0.13;0.13;;;;;;;30.78;39.14;98106.66;7388490;19;20026;-81
2023/11/14 09:18:40;;;;;;;3.83;0.47;;;;;;;30.85;39.07;98127.75;7386128;19;20621;-81
2023/11/14 09:21:06;;;;;;;0.20;0.20;;;;;;;30.99;38.54;98114.69;7386381;19;20042;-81
2023/11/14 09:23:33;;;;;;;0.20;0.20;;;;;;;31.33;38.59;98101.63;7387803;19;20014;-81
2023/11/14 09:25:59;;;;;;;0.10;0.10;;;;;;;30.84;38.48;98098.25;7387441;19;20094;-81
2023/11/14 09:28:25;;;;;;;0.15;0.15;;;;;;;30.88;38.32;98109.22;7386822;19;20006;-82
2023/11/14 09:30:51;;;;;;;0.10;0.10;;;;;;;30.44;39.51;98123.25;7388094;19;20035;-81
2023/11/14 09:33:17;;;;;;;0.10;0.10;;;;;;;30.89;39.02;98117.19;7387626;19;20017;-80
2023/11/14 09:35:43;;;;;;;0.17;0.10;;;;;;;30.52;39.50;98128.59;7388809;19;20018;-81
2023/11/14 09:38:10;;;;;;;0.10;0.10;;;;;;;30.93;38.87;98128.84;7387200;19;20010;-81
2023/11/14 09:40:36;;;;;;;0.17;0.17;;;;;;;30.75;39.09;98130.97;7386944;19;20018;-81
2023/11/14 09:43:04;;;;;;;0.30;0.30;;;;;;;30.87;39.20;98125.72;7391879;19;20103;-81
2023/11/14 09:45:31;;;;;;;0.10;0.00;;;;;;;30.88;39.12;98138.72;7395497;19;20493;-80
2023/11/14 09:47:58;;;;;;;0.70;0.30;;;;;;;30.98;38.83;98130.47;7393506;19;20018;-81
2023/11/14 09:50:25;;;;;;;0.10;0.10;;;;;;;31.22;38.42;98136.41;7393980;19;20092;-80
2023/11/14 09:52:52;;;;;;;0.08;0.08;;;;;;;31.24;38.50;98134.38;7395345;19;20007;-80
2023/11/14 09:55:18;;;;;;;0.25;0.17;;;;;;;31.12;38.82;98128.13;7393849;19;20014;-80
2023/11/14 09:57:46;;;;;;;0.20;0.20;;;;;;;31.08;38.64;98133.72;7393808;19;20453;-80
2023/11/14 10:00:13;;;;;;;4.35;0.47;;;;;;;31.19;39.08;98115.47;7392180;19;20039;-80
2023/11/14 10:02:40;;;;;;;0.10;0.00;;;;;;;31.06;38.89;98125.03;7394946;19;20016;-80
2023/11/14 10:05:08;;;;;;;0.17;0.17;;;;;;;30.69;39.34;98133.59;7395854;19;20042;-80
2023/11/14 10:07:35;;;;;;;0.28;0.25;;;;;;;31.01;39.17;98120.53;7393399;19;20431;-80
2023/11/14 10:10:01;;;;;;;0.10;0.10;;;;;;;30.64;39.44;98126.97;7392591;19;20017;-80
2023/11/14 10:12:37;;;;;;;0.00;0.00;;;;;;;30.80;38.82;98123.97;7393589;19;20003;-81
2023/11/14 10:15:04;;;;;;;0.20;0.13;;;;;;;31.17;38.78;98129.03;7391624;19;20010;-80
2023/11/14 10:17:40;;;;;;;0.40;0.40;;;;;;;31.33;38.53;98124.63;7391620;19;20042;-80
2023/11/14 10:20:07;;;;;;;0.10;0.10;;;;;;;31.38;38.13;98126.25;7391899;19;20010;-80
2023/11/14 10:22:35;;;;;;;1.17;0.65;;;;;;;31.05;38.54;98129.31;7391945;19;20022;-81
2023/11/14 10:25:02;;;;;;;0.10;0.10;;;;;;;31.21;38.58;98121.28;7391762;19;20508;-80
2023/11/14 10:27:31;;;;;;;1.75;0.47;;;;;;;31.00;38.69;98133.44;7395071;19;20031;-81
2023/11/14 10:29:58;;;;;;;0.10;0.10;;;;;;;31.17;38.74;98124.03;7395427;19;20015;-82
2023/11/14 10:32:25;;;;;;;0.10;0.00;;;;;;;31.28;38.66;98128.75;7392480;19;20074;-81
2023/11/14 10:34:52;;;;;;;0.80;0.20;;;;;;;31.27;38.36;98118.63;7392222;19;20015;-82
2023/11/14 10:37:30;;;;;;;0.03;0.03;;;;;;;31.48;38.59;98134.56;7391900;19;20003;-81
2023/11/14 10:39:57;;;;;;;2.13;0.50;;;;;;;31.73;38.07;98130.44;7393134;19;20014;-82
2023/11/14 10:42:24;;;;;;;0.50;0.20;;;;;;;31.63;38.27;98133.69;7390571;19;20022;-82
2023/11/14 10:45:01;;;;;;;0.32;0.32;;;;;;;31.40;38.44;98128.47;7392078;19;20025;-81
2023/11/14 10:47:42;;;;;;;1.13;0.95;;;;;;;31.52;38.40;98128.19;7393265;19;20014;-88
2023/11/14 10:50:29;;;;;;;1.55;0.98;;;;;;;32.09;37.60;98126.72;7390784;19;20021;-87
2023/11/14 10:53:04;;;;;;;0.10;0.00;;;;;;;32.51;37.32;98130.28;7392305;19;20024;-86
2023/11/14 10:55:32;;;;;;;0.68;0.25;;;;;;;32.75;36.78;98130.34;7391276;19;20015;-86
2023/11/14 10:57:59;;;;;;;3.50;0.80;;;;;;;32.57;37.19;98118.94;7392472;19;20010;-86
2023/11/14 11:00:27;;;;;;;0.95;0.90;;;;;;;32.61;36.93;98122.00;7390184;19;20382;-86
2023/11/14 11:02:53;;;;;;;0.10;0.10;;;;;;;32.73;36.91;98128.13;7392481;19;20055;-85
2023/11/14 11:05:20;;;;;;;7.70;0.55;;;;;;;33.00;36.50;98126.09;7391666;19;20480;-86
2023/11/14 11:07:48;;;;;;;0.65;0.60;;;;;;;32.96;36.64;98132.47;7391389;19;20397;-86
2023/11/14 11:10:16;;;;;;;4.95;1.38;;;;;;;33.35;36.24;98131.50;7392384;19;20014;-87
2023/11/14 11:12:44;;;;;;;0.10;0.10;;;;;;;33.14;36.61;98135.16;7392126;19;20007;-86
2023/11/14 11:15:11;;;;;;;0.55;0.52;;;;;;;33.59;36.11;98132.22;7391058;19;20002;-86
2023/11/14 11:17:41;;;;;;;0.10;0.10;;;;;;;33.72;35.31;98131.16;7389518;19;20010;-86
2023/11/14 11:20:21;;;;;;;0.43;0.43;;;;;;;33.46;36.04;98133.97;7392149;19;20373;-86
2023/11/14 11:23:11;;;;;;;2.13;1.27;;;;;;;33.46;36.00;98144.81;7390564;19;20011;-86
2023/11/14 11:25:41;;;;;;;0.15;0.05;;;;;;;33.17;36.23;98151.16;7390635;19;20030;-86
2023/11/14 11:28:27;;;;;;;0.25;0.25;;;;;;;33.00;36.16;98149.19;7390898;19;20007;-85
2023/11/14 11:31:06;;;;;;;7.43;0.43;;;;;;;32.98;36.37;98131.78;7389858;19;20017;-86
2023/11/14 11:33:40;;;;;;;0.20;0.10;;;;;;;32.98;36.07;98141.19;7391112;19;20014;-86